createdAt,value
2022-08-22T00:01:17.068Z,0.00
2022-08-22T00:03:16.151Z,0.00
2022-08-22T00:03:57.496Z,0.00
2022-08-22T00:06:32.564Z,0.00
2022-08-22T00:09:11.709Z,0.00
2022-08-22T00:11:54.303Z,0.00
2022-08-22T00:14:31.676Z,1.28
2022-08-22T00:17:06.761Z,0.82
2022-08-22T00:19:47.868Z,0.96
2022-08-22T00:22:21.337Z,25.53
2022-08-22T00:24:57.688Z,46.12
2022-08-22T00:27:33.590Z,46.92
2022-08-22T00:30:10.210Z,46.17
2022-08-22T00:32:44.368Z,45.67
2022-08-22T00:35:21.472Z,53.01
2022-08-22T00:38:02.699Z,60.56
2022-08-22T00:40:46.289Z,63.26
2022-08-22T00:43:43.580Z,67.58
2022-08-22T00:46:33.750Z,70.19
2022-08-22T00:49:24.387Z,54.51
2022-08-22T00:52:33.237Z,55.69
2022-08-22T00:55:35.054Z,64.86
2022-08-22T00:58:52.523Z,78.40
2022-08-22T01:01:31.195Z,81.52
2022-08-22T01:04:31.579Z,81.00
2022-08-22T01:07:14.680Z,84.15
2022-08-22T01:09:58.698Z,83.46
2022-08-22T01:12:49.163Z,86.29
2022-08-22T01:15:24.634Z,87.83
2022-08-22T01:18:17.315Z,89.63
2022-08-22T01:21:20.850Z,100.00
2022-08-22T01:24:30.375Z,100.00
2022-08-22T01:27:49.032Z,100.00
2022-08-22T01:30:37.828Z,100.00
2022-08-22T01:33:44.673Z,100.00
2022-08-22T01:36:50.379Z,100.00
2022-08-22T01:39:47.434Z,100.00
2022-08-22T01:42:47.349Z,100.00
2022-08-22T01:45:39.675Z,100.00
2022-08-22T01:48:16.018Z,100.00
2022-08-22T01:50:49.117Z,100.00
2022-08-22T01:53:26.511Z,100.00
2022-08-22T01:56:04.281Z,100.00
2022-08-22T01:58:36.523Z,100.00
2022-08-22T02:01:20.216Z,100.00
2022-08-22T02:04:01.468Z,100.00
2022-08-22T02:06:41.722Z,100.00
2022-08-22T02:09:23.222Z,100.00
2022-08-22T02:11:55.779Z,100.00
2022-08-22T02:14:41.579Z,100.00
2022-08-22T02:17:18.805Z,100.00
2022-08-22T02:19:56.255Z,100.00
2022-08-22T02:22:36.847Z,100.00
2022-08-22T02:25:20.797Z,100.00
2022-08-22T02:27:57.483Z,100.00
2022-08-22T02:30:32.278Z,100.00
2022-08-22T02:33:08.652Z,100.00
2022-08-22T02:35:43.494Z,100.00
2022-08-22T02:38:29.003Z,100.00
2022-08-22T02:41:09.646Z,100.00
2022-08-22T02:43:44.895Z,100.00
2022-08-22T02:46:24.133Z,100.00
2022-08-22T02:49:04.082Z,100.00
2022-08-22T02:51:42.005Z,100.00
2022-08-22T02:54:24.850Z,98.01
2022-08-22T02:57:02.024Z,97.18
2022-08-22T02:59:36.628Z,95.89
2022-08-22T03:02:28.292Z,95.16
2022-08-22T03:05:00.911Z,95.45
2022-08-22T03:07:42.660Z,95.34
2022-08-22T03:10:20.749Z,95.70
2022-08-22T03:13:00.281Z,95.21
2022-08-22T03:15:35.486Z,95.84
2022-08-22T03:18:08.044Z,96.21
2022-08-22T03:20:46.782Z,96.09
2022-08-22T03:23:30.809Z,96.09
2022-08-22T03:26:07.827Z,95.72
2022-08-22T03:28:59.264Z,96.11
2022-08-22T03:31:30.643Z,96.08
2022-08-22T03:34:22.431Z,96.11
2022-08-22T03:37:04.389Z,95.78
2022-08-22T03:39:58.701Z,95.08
2022-08-22T03:43:01.285Z,95.24
2022-08-22T03:46:22.483Z,95.17
2022-08-22T03:49:09.475Z,95.65
2022-08-22T03:52:00.832Z,95.91
2022-08-22T03:55:03.294Z,92.93
2022-08-22T03:58:07.011Z,92.36
2022-08-22T04:01:10.914Z,90.79
2022-08-22T04:04:25.568Z,89.88
2022-08-22T04:07:28.192Z,88.38
2022-08-22T04:10:28.512Z,87.10
2022-08-22T04:13:32.893Z,85.50
2022-08-22T04:16:21.190Z,84.62
2022-08-22T04:19:09.735Z,84.73
2022-08-22T04:22:11.936Z,84.13
2022-08-22T04:24:57.004Z,85.27
2022-08-22T04:27:30.347Z,95.15
2022-08-22T04:30:06.240Z,96.74
2022-08-22T04:32:40.313Z,97.74
2022-08-22T04:35:14.538Z,98.05
2022-08-22T04:37:51.001Z,99.10
2022-08-22T04:40:27.663Z,100.00
2022-08-22T04:43:03.521Z,100.00
2022-08-22T04:45:37.095Z,100.00
2022-08-22T04:48:11.349Z,100.00
2022-08-22T04:50:45.042Z,100.00
2022-08-22T04:53:24.623Z,100.00
2022-08-22T04:56:07.130Z,100.00
2022-08-22T04:58:47.832Z,100.00
2022-08-22T05:01:20.097Z,100.00
2022-08-22T05:03:57.380Z,100.00
2022-08-22T05:06:29.691Z,100.00
2022-08-22T05:09:03.597Z,100.00
2022-08-22T05:11:35.027Z,100.00
2022-08-22T05:14:08.665Z,100.00
2022-08-22T05:16:41.275Z,100.00
2022-08-22T05:19:22.995Z,100.00
2022-08-22T05:21:56.460Z,100.00
2022-08-22T05:24:32.958Z,100.00
2022-08-22T05:27:11.249Z,100.00
2022-08-22T05:29:41.866Z,100.00
2022-08-22T05:32:18.708Z,100.00
2022-08-22T05:34:52.268Z,100.00
2022-08-22T05:37:25.224Z,100.00
2022-08-22T05:39:59.912Z,100.00
2022-08-22T05:42:34.027Z,100.00
2022-08-22T05:45:12.292Z,100.00
2022-08-22T05:47:43.981Z,100.00
2022-08-22T05:50:18.396Z,100.00
2022-08-22T05:53:01.084Z,100.00
2022-08-22T05:55:33.102Z,100.00
2022-08-22T05:58:19.327Z,100.00
2022-08-22T06:00:55.058Z,100.00
2022-08-22T06:03:32.167Z,100.00
2022-08-22T06:06:09.426Z,100.00
2022-08-22T06:08:42.557Z,100.00
2022-08-22T06:11:33.788Z,100.00
2022-08-22T06:14:14.343Z,100.00
2022-08-22T06:16:50.406Z,100.00
2022-08-22T06:19:21.102Z,100.00
2022-08-22T06:21:56.343Z,100.00
2022-08-22T06:24:28.348Z,100.00
2022-08-22T06:27:03.791Z,100.00
2022-08-22T06:29:38.099Z,100.00
2022-08-22T06:32:13.770Z,100.00
2022-08-22T06:34:46.080Z,100.00
2022-08-22T06:37:21.546Z,100.00
2022-08-22T06:39:53.603Z,100.00
2022-08-22T06:42:26.008Z,100.00
2022-08-22T06:44:59.895Z,100.00
2022-08-22T06:47:32.734Z,100.00
2022-08-22T06:50:06.369Z,100.00
2022-08-22T06:52:53.567Z,100.00
2022-08-22T06:55:24.050Z,100.00
2022-08-22T06:57:57.578Z,100.00
2022-08-22T07:00:28.435Z,100.00
2022-08-22T07:03:04.722Z,100.00
2022-08-22T07:05:38.891Z,100.00
2022-08-22T07:08:12.222Z,100.00
2022-08-22T07:10:41.989Z,100.00
2022-08-22T07:13:16.663Z,100.00
2022-08-22T07:15:54.047Z,100.00
2022-08-22T07:18:27.500Z,100.00
2022-08-22T07:20:59.345Z,100.00
2022-08-22T07:23:35.464Z,100.00
2022-08-22T07:26:18.464Z,100.00
2022-08-22T07:28:58.475Z,100.00
2022-08-22T07:31:37.120Z,100.00
2022-08-22T07:34:25.619Z,100.00
2022-08-22T07:37:00.381Z,100.00
2022-08-22T07:39:36.392Z,100.00
2022-08-22T07:42:15.500Z,100.00
2022-08-22T07:45:07.025Z,100.00
2022-08-22T07:47:50.206Z,100.00
2022-08-22T07:50:25.124Z,100.00
2022-08-22T07:52:59.039Z,100.00
2022-08-22T07:55:29.287Z,100.00
2022-08-22T07:58:01.348Z,100.00
2022-08-22T08:00:34.361Z,100.00
2022-08-22T08:03:07.025Z,100.00
2022-08-22T08:05:38.410Z,100.00
2022-08-22T08:08:15.525Z,100.00
2022-08-22T08:10:46.599Z,100.00
2022-08-22T08:13:21.853Z,100.00
2022-08-22T08:15:52.175Z,100.00
2022-08-22T08:18:25.878Z,100.00
2022-08-22T08:20:58.645Z,100.00
2022-08-22T08:23:31.426Z,100.00
2022-08-22T08:26:08.231Z,100.00
2022-08-22T08:28:41.468Z,100.00
2022-08-22T08:31:20.512Z,100.00
2022-08-22T08:33:52.834Z,100.00
2022-08-22T08:36:46.220Z,100.00
2022-08-22T08:39:24.930Z,100.00
2022-08-22T08:42:29.500Z,100.00
2022-08-22T08:45:28.966Z,100.00
2022-08-22T08:48:27.381Z,100.00
2022-08-22T08:51:18.272Z,100.00
2022-08-22T08:54:15.777Z,100.00
2022-08-22T08:56:54.388Z,100.00
2022-08-22T08:59:45.969Z,100.00
2022-08-22T09:05:52.125Z,100.00
2022-08-22T09:08:55.642Z,100.00
2022-08-22T09:11:51.971Z,100.00
2022-08-22T09:14:34.396Z,100.00
2022-08-22T09:17:27.605Z,100.00
2022-08-22T09:20:19.330Z,100.00
2022-08-22T09:23:24.164Z,100.00
2022-08-22T09:25:59.773Z,100.00
2022-08-22T09:28:35.399Z,100.00
2022-08-22T09:31:16.805Z,100.00
2022-08-22T09:33:59.288Z,100.00
2022-08-22T09:36:36.788Z,100.00
2022-08-22T09:39:15.882Z,100.00
2022-08-22T09:40:16.672Z,100.00
2022-08-22T09:41:56.243Z,100.00
2022-08-22T09:44:39.684Z,100.00
2022-08-22T09:47:24.500Z,100.00
2022-08-22T09:50:05.591Z,100.00
2022-08-22T09:52:58.889Z,100.00
2022-08-22T09:55:42.162Z,100.00
2022-08-22T09:58:23.637Z,100.00
2022-08-22T10:00:58.113Z,100.00
2022-08-22T10:03:34.427Z,100.00
2022-08-22T10:06:15.419Z,100.00
2022-08-22T10:08:50.738Z,100.00
2022-08-22T10:11:26.821Z,100.00
2022-08-22T10:14:04.448Z,100.00
2022-08-22T10:17:03.637Z,100.00
2022-08-22T10:19:38.140Z,100.00
2022-08-22T10:22:30.339Z,100.00
2022-08-22T10:25:21.413Z,100.00
2022-08-22T10:28:14.963Z,100.00
2022-08-22T10:30:54.705Z,100.00
2022-08-22T10:33:29.487Z,100.00
2022-08-22T10:36:11.682Z,100.00
2022-08-22T10:38:48.667Z,100.00
2022-08-22T10:41:28.987Z,100.00
2022-08-22T10:44:04.479Z,100.00
2022-08-22T10:46:38.917Z,100.00
2022-08-22T10:49:19.813Z,100.00
2022-08-22T10:51:58.300Z,100.00
2022-08-22T10:54:49.008Z,100.00
2022-08-22T10:57:33.994Z,100.00
2022-08-22T11:00:12.647Z,100.00
2022-08-22T11:02:53.497Z,100.00
2022-08-22T11:05:32.765Z,100.00
2022-08-22T11:08:23.827Z,100.00
2022-08-22T11:11:09.054Z,100.00
2022-08-22T11:13:45.068Z,100.00
2022-08-22T11:16:27.479Z,100.00
2022-08-22T11:19:15.235Z,100.00
2022-08-22T11:21:52.004Z,100.00
2022-08-22T11:24:55.777Z,100.00
2022-08-22T11:27:39.721Z,100.00
2022-08-22T11:30:18.532Z,100.00
2022-08-22T11:33:11.626Z,100.00
2022-08-22T11:35:49.987Z,100.00
2022-08-22T11:38:32.720Z,100.00
2022-08-22T11:41:07.533Z,100.00
2022-08-22T11:43:48.466Z,100.00
2022-08-22T11:46:29.289Z,100.00
2022-08-22T11:49:14.298Z,100.00
2022-08-22T11:51:59.865Z,100.00
2022-08-22T11:54:42.069Z,100.00
2022-08-22T11:57:14.377Z,100.00
2022-08-22T12:00:10.197Z,100.00
2022-08-22T12:02:49.116Z,100.00
2022-08-22T12:05:26.481Z,100.00
2022-08-22T12:08:02.633Z,100.00
2022-08-22T12:10:35.683Z,100.00
2022-08-22T12:13:09.268Z,100.00
2022-08-22T12:15:47.671Z,100.00
2022-08-22T12:18:43.236Z,100.00
2022-08-22T12:21:36.737Z,100.00
2022-08-22T12:24:25.099Z,100.00
2022-08-22T12:27:11.596Z,100.00
2022-08-22T12:29:46.076Z,100.00
2022-08-22T12:32:49.236Z,100.00
2022-08-22T12:35:31.891Z,100.00
2022-08-22T12:38:29.142Z,100.00
2022-08-22T12:41:34.810Z,100.00
2022-08-22T12:44:20.969Z,100.00
2022-08-22T12:47:07.045Z,100.00
2022-08-22T12:50:07.435Z,100.00
2022-08-22T12:52:55.778Z,100.00
2022-08-22T12:55:46.815Z,100.00
2022-08-22T12:58:33.076Z,100.00
2022-08-22T13:01:07.360Z,100.00
2022-08-22T13:03:43.249Z,100.00
2022-08-22T13:06:48.837Z,100.00
2022-08-22T13:09:30.591Z,100.00
2022-08-22T13:12:05.112Z,100.00
2022-08-22T13:14:37.019Z,100.00
2022-08-22T13:17:24.574Z,100.00
2022-08-22T13:20:09.616Z,100.00
2022-08-22T13:22:45.485Z,100.00
2022-08-22T13:25:26.724Z,100.00
2022-08-22T13:27:59.195Z,100.00
2022-08-22T13:30:37.725Z,100.00
2022-08-22T13:33:10.295Z,100.00
2022-08-22T13:35:52.348Z,100.00
2022-08-22T13:38:26.032Z,100.00
2022-08-22T13:40:59.200Z,100.00
2022-08-22T13:43:32.282Z,100.00
2022-08-22T13:46:03.168Z,100.00
2022-08-22T13:48:47.298Z,100.00
2022-08-22T13:51:27.376Z,100.00
2022-08-22T13:54:10.928Z,100.00
2022-08-22T13:56:50.399Z,100.00
2022-08-22T13:59:49.682Z,100.00
2022-08-22T14:02:30.902Z,100.00
2022-08-22T14:05:05.263Z,100.00
2022-08-22T14:07:39.133Z,100.00
2022-08-22T14:10:15.019Z,100.00
2022-08-22T14:13:07.188Z,100.00
2022-08-22T14:15:45.929Z,100.00
2022-08-22T14:18:21.263Z,100.00
2022-08-22T14:21:19.988Z,100.00
2022-08-22T14:23:53.161Z,100.00
2022-08-22T14:26:33.211Z,100.00
2022-08-22T14:29:13.268Z,100.00
2022-08-22T14:31:42.267Z,100.00
2022-08-22T14:34:14.569Z,100.00
2022-08-22T14:37:03.076Z,100.00
2022-08-22T14:39:40.991Z,100.00
2022-08-22T14:42:18.682Z,100.00
2022-08-22T14:45:00.791Z,100.00
2022-08-22T14:47:55.590Z,100.00
2022-08-22T14:50:40.466Z,100.00
2022-08-22T14:53:13.170Z,100.00
2022-08-22T14:55:43.176Z,100.00
2022-08-22T14:58:26.497Z,100.00
2022-08-22T15:00:58.801Z,100.00
2022-08-22T15:03:32.227Z,100.00
2022-08-22T15:06:07.268Z,100.00
2022-08-22T15:08:42.289Z,100.00
2022-08-22T15:11:25.558Z,100.00
2022-08-22T15:14:01.422Z,100.00
2022-08-22T15:16:35.417Z,100.00
2022-08-22T15:19:24.027Z,100.00
2022-08-22T15:22:04.761Z,100.00
2022-08-22T15:24:34.421Z,100.00
2022-08-22T15:27:06.737Z,100.00
2022-08-22T15:29:48.107Z,100.00
2022-08-22T15:32:22.315Z,100.00
2022-08-22T15:34:52.525Z,100.00
2022-08-22T15:37:33.725Z,100.00
2022-08-22T15:40:12.525Z,100.00
2022-08-22T15:42:45.292Z,100.00
2022-08-22T15:45:22.879Z,100.00
2022-08-22T15:47:54.973Z,100.00
2022-08-22T15:50:34.729Z,100.00
2022-08-22T15:53:14.800Z,100.00
2022-08-22T15:56:23.980Z,100.00
2022-08-22T15:59:10.477Z,100.00
2022-08-22T16:01:44.758Z,100.00
2022-08-22T16:04:34.473Z,100.00
2022-08-22T16:07:19.779Z,100.00
2022-08-22T16:09:51.774Z,100.00
2022-08-22T16:12:32.841Z,100.00
2022-08-22T16:15:05.141Z,100.00
2022-08-22T16:17:45.172Z,100.00
2022-08-22T16:20:53.547Z,100.00
2022-08-22T16:23:23.505Z,100.00
2022-08-22T16:26:15.321Z,100.00
2022-08-22T16:28:58.337Z,100.00
2022-08-22T16:31:32.705Z,100.00
2022-08-22T16:34:23.646Z,100.00
2022-08-22T16:37:14.660Z,100.00
2022-08-22T16:39:47.998Z,100.00
2022-08-22T16:42:27.796Z,100.00
2022-08-22T16:45:12.925Z,100.00
2022-08-22T16:47:52.876Z,100.00
2022-08-22T16:50:33.817Z,100.00
2022-08-22T16:53:10.074Z,100.00
2022-08-22T16:55:49.483Z,100.00
2022-08-22T16:58:56.904Z,100.00
2022-08-22T17:01:55.256Z,100.00
2022-08-22T17:04:33.834Z,100.00
2022-08-22T17:07:16.081Z,100.00
2022-08-22T17:10:08.959Z,100.00
2022-08-22T17:12:58.719Z,100.00
2022-08-22T17:15:35.298Z,100.00
2022-08-22T17:18:27.273Z,100.00
2022-08-22T17:21:07.106Z,100.00
2022-08-22T17:23:46.853Z,100.00
2022-08-22T17:26:21.205Z,100.00
2022-08-22T17:29:04.608Z,100.00
2022-08-22T17:31:40.265Z,100.00
2022-08-22T17:34:28.851Z,100.00
2022-08-22T17:37:08.146Z,100.00
2022-08-22T17:40:10.461Z,100.00
2022-08-22T17:42:51.152Z,100.00
2022-08-22T17:45:32.190Z,100.00
2022-08-22T17:48:07.196Z,100.00
2022-08-22T17:50:43.796Z,100.00
2022-08-22T17:53:25.373Z,100.00
2022-08-22T17:56:01.675Z,100.00
2022-08-22T17:58:43.428Z,100.00
2022-08-22T18:01:16.993Z,100.00
2022-08-22T18:03:53.727Z,100.00
2022-08-22T18:06:27.021Z,100.00
2022-08-22T18:09:15.228Z,100.00
2022-08-22T18:11:51.195Z,100.00
2022-08-22T18:14:31.022Z,100.00
2022-08-22T18:17:01.841Z,100.00
2022-08-22T18:19:46.179Z,100.00
2022-08-22T18:22:23.493Z,100.00
2022-08-22T18:24:58.895Z,100.00
2022-08-22T18:27:34.802Z,100.00
2022-08-22T18:30:15.492Z,100.00
2022-08-22T18:32:52.961Z,100.00
2022-08-22T18:35:28.845Z,100.00
2022-08-22T18:38:19.555Z,100.00
2022-08-22T18:40:53.325Z,100.00
2022-08-22T18:43:30.504Z,100.00
2022-08-22T18:46:05.431Z,100.00
2022-08-22T18:48:59.347Z,100.00
2022-08-22T18:51:38.261Z,100.00
2022-08-22T18:54:32.890Z,100.00
2022-08-22T18:57:09.270Z,100.00
2022-08-22T18:59:48.204Z,100.00
2022-08-22T19:02:55.731Z,100.00
2022-08-22T19:05:50.196Z,100.00
2022-08-22T19:08:37.007Z,100.00
2022-08-22T19:11:21.993Z,100.00
2022-08-22T19:14:19.461Z,100.00
2022-08-22T19:17:06.638Z,100.00
2022-08-22T19:20:03.797Z,100.00
2022-08-22T19:22:35.969Z,100.00
2022-08-22T19:25:21.743Z,100.00
2022-08-22T19:28:23.501Z,100.00
2022-08-22T19:31:16.494Z,100.00
2022-08-22T19:33:49.773Z,100.00
2022-08-22T19:36:33.341Z,100.00
2022-08-22T19:39:08.903Z,100.00
2022-08-22T19:41:41.361Z,100.00
2022-08-22T19:44:12.616Z,100.00
2022-08-22T19:46:43.062Z,100.00
2022-08-22T19:49:30.380Z,100.00
2022-08-22T19:52:11.887Z,100.00
2022-08-22T19:54:47.585Z,100.00
2022-08-22T19:57:25.146Z,100.00
2022-08-22T20:00:00.904Z,100.00
2022-08-22T20:02:37.537Z,100.00
2022-08-22T20:05:33.810Z,100.00
2022-08-22T20:08:22.494Z,100.00
2022-08-22T20:11:07.866Z,100.00
2022-08-22T20:13:38.608Z,100.00
2022-08-22T20:16:19.369Z,100.00
2022-08-22T20:19:14.389Z,100.00
2022-08-22T20:21:59.876Z,100.00
2022-08-22T20:24:39.950Z,100.00
2022-08-22T20:27:15.932Z,100.00
2022-08-22T20:29:51.286Z,100.00
2022-08-22T20:32:23.373Z,100.00
2022-08-22T20:34:57.009Z,100.00
2022-08-22T20:38:05.889Z,100.00
2022-08-22T20:40:55.325Z,100.00
2022-08-22T20:43:28.322Z,100.00
2022-08-22T20:46:13.008Z,100.00
2022-08-22T20:48:45.677Z,100.00
2022-08-22T20:51:18.489Z,100.00
2022-08-22T20:53:54.807Z,100.00
2022-08-22T20:56:34.874Z,100.00
2022-08-22T20:59:17.429Z,100.00
2022-08-22T21:01:49.372Z,100.00
2022-08-22T21:04:22.583Z,100.00
2022-08-22T21:07:00.026Z,100.00
2022-08-22T21:09:48.080Z,100.00
2022-08-22T21:12:16.611Z,100.00
2022-08-22T21:14:47.080Z,100.00
2022-08-22T21:17:26.051Z,100.00
2022-08-22T21:19:57.745Z,100.00
2022-08-22T21:22:28.493Z,100.00
2022-08-22T21:25:00.316Z,100.00
2022-08-22T21:27:31.673Z,100.00
2022-08-22T21:30:02.811Z,100.00
2022-08-22T21:32:34.795Z,100.00
2022-08-22T21:35:05.109Z,100.00
2022-08-22T21:37:39.869Z,100.00
2022-08-22T21:40:18.703Z,100.00
2022-08-22T21:43:00.140Z,100.00
2022-08-22T21:45:31.800Z,100.00
2022-08-22T21:48:01.887Z,100.00
2022-08-22T21:50:38.036Z,100.00
2022-08-22T21:53:10.228Z,100.00
2022-08-22T21:55:44.522Z,100.00
2022-08-22T21:58:35.962Z,100.00
2022-08-22T22:01:28.339Z,100.00
2022-08-22T22:03:58.429Z,100.00
2022-08-22T22:06:28.578Z,100.00
2022-08-22T22:08:58.061Z,100.00
2022-08-22T22:11:28.001Z,100.00
2022-08-22T22:13:56.574Z,100.00
2022-08-22T22:16:28.139Z,100.00
2022-08-22T22:18:57.198Z,100.00
2022-08-22T22:21:25.782Z,100.00
2022-08-22T22:23:54.524Z,100.00
2022-08-22T22:26:28.820Z,100.00
2022-08-22T22:28:59.124Z,100.00
2022-08-22T22:31:28.296Z,100.00
2022-08-22T22:33:56.839Z,100.00
2022-08-22T22:36:27.696Z,100.00
2022-08-22T22:38:56.618Z,100.00
2022-08-22T22:41:25.834Z,100.00
2022-08-22T22:43:56.794Z,100.00
2022-08-22T22:46:26.883Z,100.00
2022-08-22T22:48:55.565Z,100.00
2022-08-22T22:51:24.595Z,100.00
2022-08-22T22:53:53.183Z,100.00
2022-08-22T22:56:24.038Z,100.00
2022-08-22T22:58:59.222Z,100.00
2022-08-22T23:01:34.261Z,100.00
2022-08-22T23:04:05.481Z,100.00
2022-08-22T23:06:35.463Z,100.00
2022-08-22T23:09:04.173Z,100.00
2022-08-22T23:11:33.140Z,100.00
2022-08-22T23:14:03.226Z,100.00
2022-08-22T23:16:37.247Z,100.00
2022-08-22T23:19:09.292Z,100.00
2022-08-22T23:21:38.293Z,100.00
2022-08-22T23:24:11.371Z,100.00
2022-08-22T23:26:42.386Z,100.00
2022-08-22T23:29:12.522Z,100.00
2022-08-22T23:31:44.964Z,100.00
2022-08-22T23:34:16.571Z,100.00
2022-08-22T23:36:47.945Z,100.00
2022-08-22T23:39:17.624Z,100.00
2022-08-22T23:41:47.133Z,100.00
2022-08-22T23:44:18.293Z,100.00
2022-08-22T23:46:49.068Z,100.00
2022-08-22T23:49:18.197Z,100.00
2022-08-22T23:51:47.963Z,100.00
2022-08-22T23:54:16.887Z,100.00
2022-08-22T23:56:49.032Z,100.00
2022-08-22T23:59:19.855Z,100.00
